Terminal Aerodrome Forecast
Issued by NWS Charleston, WV

Current Version | Previous Version | Graphics & Text | Print | Product List | Glossary On
Versions: 1 2 3 4 5 6 7 8 9 10 11 12 13 14 15 16 17 18 19 20 21 22 23 24 25 26 27 28 29 30 31
000
FTUS41 KRLX 020500 RRA
TAFPKB
TAF
KPKB 020550Z 0206/0306 21005KT P6SM BKN080
     FM021200 21004KT P6SM VCTS BKN060CB
     FM021400 22007KT P6SM BKN050
     FM021600 23009KT P6SM VCTS BKN045CB
     FM021800 23010G15KT 5SM TSRA BR BKN040CB
     FM022300 26007KT P6SM BKN060
     FM030100 25004KT P6SM SCT140
     FM030300 00000KT P6SM SCT200
     FM030500 00000KT 1SM BR SCT001 SCT200=

USA.gov is the U.S. government's official web portal to all federal, state and local government web resources and services.